sensor_id;sensor_type;location;lat;lon;timestamp;pressure;altitude;pressure_sealevel;temperature;humidity
73558;BME280;61829;53.286;10.434;2022-12-18T00:03:47;102759.41;;;-6.75;91.90
73558;BME280;61829;53.286;10.434;2022-12-18T00:06:13;102750.72;;;-6.79;91.75
73558;BME280;61829;53.286;10.434;2022-12-18T00:08:39;102760.44;;;-6.84;91.70
73558;BME280;61829;53.286;10.434;2022-12-18T00:11:08;102766.63;;;-6.89;92.08
73558;BME280;61829;53.286;10.434;2022-12-18T00:13:34;102780.63;;;-6.90;92.27
73558;BME280;61829;53.286;10.434;2022-12-18T00:16:02;102774.53;;;-6.92;92.55
73558;BME280;61829;53.286;10.434;2022-12-18T00:18:29;102777.13;;;-6.91;92.40
73558;BME280;61829;53.286;10.434;2022-12-18T00:20:58;102777.16;;;-6.92;92.34
73558;BME280;61829;53.286;10.434;2022-12-18T00:23:27;102776.31;;;-6.93;92.79
73558;BME280;61829;53.286;10.434;2022-12-18T00:25:53;102764.91;;;-6.90;92.88
73558;BME280;61829;53.286;10.434;2022-12-18T00:28:20;102765.78;;;-6.91;92.43
73558;BME280;61829;53.286;10.434;2022-12-18T00:30:46;102771.94;;;-6.92;92.83
73558;BME280;61829;53.286;10.434;2022-12-18T00:33:13;102769.31;;;-6.94;92.82
73558;BME280;61829;53.286;10.434;2022-12-18T00:35:39;102775.50;;;-6.98;92.81
73558;BME280;61829;53.286;10.434;2022-12-18T00:38:06;102772.03;;;-6.98;92.91
73558;BME280;61829;53.286;10.434;2022-12-18T00:40:32;102779.91;;;-7.00;93.11
73558;BME280;61829;53.286;10.434;2022-12-18T00:42:58;102770.25;;;-6.98;93.06
73558;BME280;61829;53.286;10.434;2022-12-18T00:45:29;102772.94;;;-7.01;92.76
73558;BME280;61829;53.286;10.434;2022-12-18T00:47:57;102774.69;;;-7.02;92.93
73558;BME280;61829;53.286;10.434;2022-12-18T00:50:24;102779.94;;;-7.03;93.21
73558;BME280;61829;53.286;10.434;2022-12-18T00:52:51;102789.56;;;-7.05;92.76
73558;BME280;61829;53.286;10.434;2022-12-18T00:55:17;102787.84;;;-7.06;92.91
73558;BME280;61829;53.286;10.434;2022-12-18T00:57:43;102794.88;;;-7.08;93.27
73558;BME280;61829;53.286;10.434;2022-12-18T01:00:13;102797.50;;;-7.08;93.19
73558;BME280;61829;53.286;10.434;2022-12-18T01:02:40;102792.28;;;-7.10;93.15
73558;BME280;61829;53.286;10.434;2022-12-18T01:05:07;102794.97;;;-7.14;92.46
73558;BME280;61829;53.286;10.434;2022-12-18T01:07:34;102798.53;;;-7.18;92.62
73558;BME280;61829;53.286;10.434;2022-12-18T01:10:00;102797.63;;;-7.19;92.39
73558;BME280;61829;53.286;10.434;2022-12-18T01:12:26;102799.44;;;-7.21;93.01
73558;BME280;61829;53.286;10.434;2022-12-18T01:14:52;102802.09;;;-7.24;93.02
73558;BME280;61829;53.286;10.434;2022-12-18T01:17:19;102796.88;;;-7.26;93.13
73558;BME280;61829;53.286;10.434;2022-12-18T01:19:45;102795.16;;;-7.27;92.94
73558;BME280;61829;53.286;10.434;2022-12-18T01:22:11;102796.97;;;-7.30;92.91
73558;BME280;61829;53.286;10.434;2022-12-18T01:24:37;102799.59;;;-7.32;92.82
73558;BME280;61829;53.286;10.434;2022-12-18T01:27:03;102805.69;;;-7.30;92.96
73558;BME280;61829;53.286;10.434;2022-12-18T01:29:29;102811.81;;;-7.32;93.05
73558;BME280;61829;53.286;10.434;2022-12-18T01:31:56;102805.72;;;-7.33;93.12
73558;BME280;61829;53.286;10.434;2022-12-18T01:34:23;102811.81;;;-7.32;93.17
73558;BME280;61829;53.286;10.434;2022-12-18T01:36:49;102807.53;;;-7.38;92.94
73558;BME280;61829;53.286;10.434;2022-12-18T01:39:18;102803.19;;;-7.40;93.25
73558;BME280;61829;53.286;10.434;2022-12-18T01:41:45;102795.38;;;-7.43;93.21
73558;BME280;61829;53.286;10.434;2022-12-18T01:49:57;102783.16;;;-7.45;93.30
73558;BME280;61829;53.286;10.434;2022-12-18T01:52:26;102781.47;;;-7.49;92.83
73558;BME280;61829;53.286;10.434;2022-12-18T01:54:54;102781.53;;;-7.53;92.83
73558;BME280;61829;53.286;10.434;2022-12-18T01:57:23;102779.81;;;-7.56;92.99
73558;BME280;61829;53.286;10.434;2022-12-18T01:59:52;102792.94;;;-7.59;92.86
73558;BME280;61829;53.286;10.434;2022-12-18T02:02:45;102799.06;;;-7.58;93.00
73558;BME280;61829;53.286;10.434;2022-12-18T02:05:13;102789.47;;;-7.58;92.85
73558;BME280;61829;53.286;10.434;2022-12-18T02:08:10;102796.47;;;-7.58;93.29
73558;BME280;61829;53.286;10.434;2022-12-18T02:14:15;102787.75;;;-7.62;92.86
73558;BME280;61829;53.286;10.434;2022-12-18T02:19:39;102806.13;;;-7.65;93.26
73558;BME280;61829;53.286;10.434;2022-12-18T02:22:18;102809.63;;;-7.66;93.41
73558;BME280;61829;53.286;10.434;2022-12-18T02:24:56;102802.69;;;-7.69;93.08
73558;BME280;61829;53.286;10.434;2022-12-18T02:27:26;102819.28;;;-7.71;92.90
73558;BME280;61829;53.286;10.434;2022-12-18T02:29:55;102813.25;;;-7.76;92.62
73558;BME280;61829;53.286;10.434;2022-12-18T02:32:34;102812.38;;;-7.77;92.93
73558;BME280;61829;53.286;10.434;2022-12-18T02:35:04;102805.44;;;-7.78;92.68
73558;BME280;61829;53.286;10.434;2022-12-18T02:37:33;102812.38;;;-7.77;92.48
73558;BME280;61829;53.286;10.434;2022-12-18T02:40:01;102804.56;;;-7.81;92.96
73558;BME280;61829;53.286;10.434;2022-12-18T02:42:29;102812.47;;;-7.83;92.98
73558;BME280;61829;53.286;10.434;2022-12-18T02:44:55;102819.47;;;-7.86;92.59
73558;BME280;61829;53.286;10.434;2022-12-18T02:47:24;102827.38;;;-7.89;92.86
73558;BME280;61829;53.286;10.434;2022-12-18T03:03:28;102841.44;;;-8.04;92.72
73558;BME280;61829;53.286;10.434;2022-12-18T03:06:06;102832.78;;;-8.06;93.01
73558;BME280;61829;53.286;10.434;2022-12-18T03:08:41;102839.81;;;-8.11;92.72
73558;BME280;61829;53.286;10.434;2022-12-18T03:11:11;102829.38;;;-8.15;92.64
73558;BME280;61829;53.286;10.434;2022-12-18T03:13:58;102839.91;;;-8.21;92.15
73558;BME280;61829;53.286;10.434;2022-12-18T03:16:28;102827.69;;;-8.20;92.75
73558;BME280;61829;53.286;10.434;2022-12-18T03:19:01;102825.91;;;-8.18;92.62
73558;BME280;61829;53.286;10.434;2022-12-18T03:21:37;102834.66;;;-8.21;92.85
73558;BME280;61829;53.286;10.434;2022-12-18T03:24:06;102825.97;;;-8.23;92.91
73558;BME280;61829;53.286;10.434;2022-12-18T03:26:35;102821.63;;;-8.25;93.21
73558;BME280;61829;53.286;10.434;2022-12-18T03:29:07;102823.34;;;-8.24;92.84
73558;BME280;61829;53.286;10.434;2022-12-18T03:31:35;102832.94;;;-8.25;92.90
73558;BME280;61829;53.286;10.434;2022-12-18T03:34:09;102833.84;;;-8.26;93.15
73558;BME280;61829;53.286;10.434;2022-12-18T03:36:38;102836.44;;;-8.24;92.92
73558;BME280;61829;53.286;10.434;2022-12-18T03:39:05;102836.47;;;-8.26;93.03
73558;BME280;61829;53.286;10.434;2022-12-18T03:46:33;102831.28;;;-8.32;92.49
73558;BME280;61829;53.286;10.434;2022-12-18T03:49:12;102823.44;;;-8.32;92.63
73558;BME280;61829;53.286;10.434;2022-12-18T03:51:52;102824.31;;;-8.33;92.71
73558;BME280;61829;53.286;10.434;2022-12-18T03:54:20;102829.53;;;-8.33;92.63
73558;BME280;61829;53.286;10.434;2022-12-18T03:56:54;102840.06;;;-8.38;91.92
73558;BME280;61829;53.286;10.434;2022-12-18T03:59:23;102838.38;;;-8.40;92.00
73558;BME280;61829;53.286;10.434;2022-12-18T04:01:55;102845.34;;;-8.44;92.28
73558;BME280;61829;53.286;10.434;2022-12-18T04:04:24;102848.00;;;-8.45;92.36
73558;BME280;61829;53.286;10.434;2022-12-18T04:06:51;102851.50;;;-8.48;92.10
73558;BME280;61829;53.286;10.434;2022-12-18T04:09:19;102842.78;;;-8.48;92.11
73558;BME280;61829;53.286;10.434;2022-12-18T04:11:46;102841.94;;;-8.49;92.09
73558;BME280;61829;53.286;10.434;2022-12-18T04:14:13;102848.03;;;-8.53;92.09
73558;BME280;61829;53.286;10.434;2022-12-18T04:16:39;102846.28;;;-8.51;92.03
73558;BME280;61829;53.286;10.434;2022-12-18T04:19:06;102845.44;;;-8.51;91.94
73558;BME280;61829;53.286;10.434;2022-12-18T04:21:32;102835.88;;;-8.54;92.19
73558;BME280;61829;53.286;10.434;2022-12-18T04:23:58;102840.25;;;-8.57;92.05
73558;BME280;61829;53.286;10.434;2022-12-18T04:26:24;102843.75;;;-8.62;91.78
73558;BME280;61829;53.286;10.434;2022-12-18T04:28:50;102844.63;;;-8.61;92.14
73558;BME280;61829;53.286;10.434;2022-12-18T04:31:17;102838.53;;;-8.62;92.09
73558;BME280;61829;53.286;10.434;2022-12-18T04:33:42;102834.19;;;-8.63;91.83
73558;BME280;61829;53.286;10.434;2022-12-18T04:36:09;102833.34;;;-8.65;92.07
73558;BME280;61829;53.286;10.434;2022-12-18T04:38:35;102830.72;;;-8.65;91.97
73558;BME280;61829;53.286;10.434;2022-12-18T04:41:01;102828.13;;;-8.68;91.82
73558;BME280;61829;53.286;10.434;2022-12-18T04:43:27;102834.22;;;-8.67;91.76
73558;BME280;61829;53.286;10.434;2022-12-18T04:45:53;102841.22;;;-8.71;92.06
73558;BME280;61829;53.286;10.434;2022-12-18T04:48:20;102836.88;;;-8.72;91.96
73558;BME280;61829;53.286;10.434;2022-12-18T04:50:47;102831.66;;;-8.69;91.94
73558;BME280;61829;53.286;10.434;2022-12-18T04:53:13;102829.88;;;-8.70;92.03
73558;BME280;61829;53.286;10.434;2022-12-18T04:55:39;102813.31;;;-8.67;91.89
73558;BME280;61829;53.286;10.434;2022-12-18T04:58:05;102825.50;;;-8.65;92.46
73558;BME280;61829;53.286;10.434;2022-12-18T05:00:31;102822.88;;;-8.65;91.83
73558;BME280;61829;53.286;10.434;2022-12-18T05:03:00;102819.41;;;-8.65;92.03
73558;BME280;61829;53.286;10.434;2022-12-18T05:05:27;102815.91;;;-8.63;92.15
73558;BME280;61829;53.286;10.434;2022-12-18T05:07:53;102830.69;;;-8.62;92.06
73558;BME280;61829;53.286;10.434;2022-12-18T05:10:19;102828.97;;;-8.64;91.84
73558;BME280;61829;53.286;10.434;2022-12-18T05:12:45;102838.53;;;-8.62;91.89
73558;BME280;61829;53.286;10.434;2022-12-18T05:15:31;102834.16;;;-8.60;91.67
73558;BME280;61829;53.286;10.434;2022-12-18T05:17:58;102835.91;;;-8.62;91.59
73558;BME280;61829;53.286;10.434;2022-12-18T05:20:25;102844.66;;;-8.63;91.55
73558;BME280;61829;53.286;10.434;2022-12-18T05:22:51;102835.97;;;-8.68;91.41
73558;BME280;61829;53.286;10.434;2022-12-18T05:25:18;102836.84;;;-8.66;91.42
73558;BME280;61829;53.286;10.434;2022-12-18T05:27:44;102852.50;;;-8.67;91.84
73558;BME280;61829;53.286;10.434;2022-12-18T05:30:11;102856.88;;;-8.69;90.87
73558;BME280;61829;53.286;10.434;2022-12-18T05:32:38;102863.00;;;-8.72;91.09
73558;BME280;61829;53.286;10.434;2022-12-18T05:35:06;102863.91;;;-8.74;91.19
73558;BME280;61829;53.286;10.434;2022-12-18T05:37:32;102871.75;;;-8.76;90.98
73558;BME280;61829;53.286;10.434;2022-12-18T05:39:58;102871.75;;;-8.79;90.55
73558;BME280;61829;53.286;10.434;2022-12-18T05:42:24;102880.50;;;-8.82;90.76
73558;BME280;61829;53.286;10.434;2022-12-18T05:44:50;102881.38;;;-8.84;90.69
73558;BME280;61829;53.286;10.434;2022-12-18T05:47:16;102882.25;;;-8.85;90.80
73558;BME280;61829;53.286;10.434;2022-12-18T05:49:43;102884.91;;;-8.88;90.84
73558;BME280;61829;53.286;10.434;2022-12-18T05:52:11;102885.78;;;-8.92;90.98
73558;BME280;61829;53.286;10.434;2022-12-18T05:54:37;102891.88;;;-8.93;91.00
73558;BME280;61829;53.286;10.434;2022-12-18T05:57:04;102889.28;;;-8.95;90.87
73558;BME280;61829;53.286;10.434;2022-12-18T05:59:30;102891.88;;;-8.95;90.93
73558;BME280;61829;53.286;10.434;2022-12-18T06:01:56;102884.91;;;-8.93;90.64
73558;BME280;61829;53.286;10.434;2022-12-18T06:04:22;102878.81;;;-8.95;90.77
73558;BME280;61829;53.286;10.434;2022-12-18T06:06:48;102883.22;;;-8.97;91.00
73558;BME280;61829;53.286;10.434;2022-12-18T06:09:14;102879.72;;;-8.96;91.19
73558;BME280;61829;53.286;10.434;2022-12-18T06:11:40;102881.44;;;-8.98;91.22
73558;BME280;61829;53.286;10.434;2022-12-18T06:14:07;102882.34;;;-9.00;91.38
73558;BME280;61829;53.286;10.434;2022-12-18T06:16:33;102872.75;;;-8.97;91.07
73558;BME280;61829;53.286;10.434;2022-12-18T06:19:00;102873.66;;;-8.99;91.06
73558;BME280;61829;53.286;10.434;2022-12-18T06:21:27;102883.22;;;-8.97;91.00
73558;BME280;61829;53.286;10.434;2022-12-18T06:23:54;102882.31;;;-8.94;91.07
73558;BME280;61829;53.286;10.434;2022-12-18T06:26:20;102890.16;;;-8.94;91.12
73558;BME280;61829;53.286;10.434;2022-12-18T06:28:46;102887.53;;;-8.96;91.25
73558;BME280;61829;53.286;10.434;2022-12-18T06:31:12;102888.38;;;-8.92;90.98
73558;BME280;61829;53.286;10.434;2022-12-18T06:33:38;102897.97;;;-8.93;90.80
73558;BME280;61829;53.286;10.434;2022-12-18T06:36:10;102908.41;;;-8.93;91.03
73558;BME280;61829;53.286;10.434;2022-12-18T06:38:40;102899.69;;;-8.90;90.84
73558;BME280;61829;53.286;10.434;2022-12-18T06:41:17;102899.72;;;-8.95;90.83
73558;BME280;61829;53.286;10.434;2022-12-18T06:43:44;102905.81;;;-8.97;90.90
73558;BME280;61829;53.286;10.434;2022-12-18T06:46:10;102908.44;;;-8.97;90.53
73558;BME280;61829;53.286;10.434;2022-12-18T06:48:36;102913.66;;;-8.97;90.58
73558;BME280;61829;53.286;10.434;2022-12-18T06:51:02;102911.94;;;-8.98;90.56
73558;BME280;61829;53.286;10.434;2022-12-18T06:53:31;102925.03;;;-9.00;90.41
73558;BME280;61829;53.286;10.434;2022-12-18T06:56:06;102925.03;;;-9.00;90.20
73558;BME280;61829;53.286;10.434;2022-12-18T06:58:33;102931.97;;;-9.00;90.63
73558;BME280;61829;53.286;10.434;2022-12-18T07:01:03;102942.41;;;-9.04;90.35
73558;BME280;61829;53.286;10.434;2022-12-18T07:03:30;102948.53;;;-9.01;90.42
73558;BME280;61829;53.286;10.434;2022-12-18T07:05:56;102949.41;;;-9.06;90.40
73558;BME280;61829;53.286;10.434;2022-12-18T07:08:22;102950.28;;;-9.05;90.45
73558;BME280;61829;53.286;10.434;2022-12-18T07:10:48;102945.91;;;-9.06;90.34
73558;BME280;61829;53.286;10.434;2022-12-18T07:13:15;102946.81;;;-9.07;89.97
73558;BME280;61829;53.286;10.434;2022-12-18T07:15:42;102932.91;;;-9.11;90.25
73558;BME280;61829;53.286;10.434;2022-12-18T07:18:08;102932.91;;;-9.11;90.42
73558;BME280;61829;53.286;10.434;2022-12-18T07:20:34;102932.91;;;-9.11;90.19
73558;BME280;61829;53.286;10.434;2022-12-18T07:23:04;102923.31;;;-9.12;90.35
73558;BME280;61829;53.286;10.434;2022-12-18T07:25:34;102932.03;;;-9.14;90.07
73558;BME280;61829;53.286;10.434;2022-12-18T07:28:02;102942.47;;;-9.14;90.04
73558;BME280;61829;53.286;10.434;2022-12-18T07:30:31;102939.88;;;-9.17;90.06
73558;BME280;61829;53.286;10.434;2022-12-18T07:32:57;102947.72;;;-9.19;90.48
73558;BME280;61829;53.286;10.434;2022-12-18T07:35:23;102955.56;;;-9.19;89.64
73558;BME280;61829;53.286;10.434;2022-12-18T07:37:50;102956.41;;;-9.18;90.16
73558;BME280;61829;53.286;10.434;2022-12-18T07:40:16;102971.19;;;-9.17;90.06
73558;BME280;61829;53.286;10.434;2022-12-18T07:42:42;102963.38;;;-9.16;89.98
73558;BME280;61829;53.286;10.434;2022-12-18T07:45:08;102958.13;;;-9.14;89.95
73558;BME280;61829;53.286;10.434;2022-12-18T07:47:35;102959.03;;;-9.14;90.07
73558;BME280;61829;53.286;10.434;2022-12-18T07:50:03;102963.38;;;-9.13;90.23
73558;BME280;61829;53.286;10.434;2022-12-18T07:52:29;102967.69;;;-9.12;89.87
73558;BME280;61829;53.286;10.434;2022-12-18T07:54:55;102960.72;;;-9.07;89.66
73558;BME280;61829;53.286;10.434;2022-12-18T07:57:21;102953.78;;;-9.08;90.03
73558;BME280;61829;53.286;10.434;2022-12-18T07:59:47;102960.75;;;-9.08;89.99
73558;BME280;61829;53.286;10.434;2022-12-18T08:02:13;102965.06;;;-9.07;90.11
73558;BME280;61829;53.286;10.434;2022-12-18T08:04:40;102971.19;;;-9.05;90.06
73558;BME280;61829;53.286;10.434;2022-12-18T08:07:06;102971.13;;;-9.00;90.09
73558;BME280;61829;53.286;10.434;2022-12-18T08:09:32;102970.25;;;-8.93;90.16
73558;BME280;61829;53.286;10.434;2022-12-18T08:11:58;102964.13;;;-8.89;89.76
73558;BME280;61829;53.286;10.434;2022-12-18T08:14:24;102970.19;;;-8.84;89.64
73558;BME280;61829;53.286;10.434;2022-12-18T08:16:50;102971.94;;;-8.82;89.67
73558;BME280;61829;53.286;10.434;2022-12-18T08:19:16;102965.81;;;-8.76;89.46
73558;BME280;61829;53.286;10.434;2022-12-18T08:21:42;102956.22;;;-8.75;89.42
73558;BME280;61829;53.286;10.434;2022-12-18T08:24:11;102957.94;;;-8.71;89.41
73558;BME280;61829;53.286;10.434;2022-12-18T08:26:38;102950.06;;;-8.67;89.26
73558;BME280;61829;53.286;10.434;2022-12-18T08:29:04;102934.38;;;-8.64;89.03
73558;BME280;61829;53.286;10.434;2022-12-18T08:31:30;102930.88;;;-8.60;89.16
73558;BME280;61829;53.286;10.434;2022-12-18T08:33:56;102925.63;;;-8.56;89.16
73558;BME280;61829;53.286;10.434;2022-12-18T08:36:23;102925.56;;;-8.50;88.91
73558;BME280;61829;53.286;10.434;2022-12-18T08:38:50;102915.09;;;-8.46;88.93
73558;BME280;61829;53.286;10.434;2022-12-18T08:41:17;102918.53;;;-8.39;88.89
73558;BME280;61829;53.286;10.434;2022-12-18T08:43:43;102924.56;;;-8.34;88.75
73558;BME280;61829;53.286;10.434;2022-12-18T08:46:33;102914.84;;;-8.20;88.41
73558;BME280;61829;53.286;10.434;2022-12-18T08:49:00;102918.28;;;-8.15;88.55
73558;BME280;61829;53.286;10.434;2022-12-18T08:51:26;102923.44;;;-8.05;88.55
73558;BME280;61829;53.286;10.434;2022-12-18T08:53:52;102924.25;;;-7.97;88.13
73558;BME280;61829;53.286;10.434;2022-12-18T08:56:18;102930.31;;;-7.92;88.11
73558;BME280;61829;53.286;10.434;2022-12-18T08:58:44;102925.88;;;-7.84;87.80
73558;BME280;61829;53.286;10.434;2022-12-18T09:01:12;102933.69;;;-7.82;87.79
73558;BME280;61829;53.286;10.434;2022-12-18T09:03:38;102945.84;;;-7.77;87.34
73558;BME280;61829;53.286;10.434;2022-12-18T09:06:05;102934.47;;;-7.73;87.37
73558;BME280;61829;53.286;10.434;2022-12-18T09:08:35;102942.25;;;-7.68;87.19
73558;BME280;61829;53.286;10.434;2022-12-18T09:11:04;102948.28;;;-7.61;87.00
73558;BME280;61829;53.286;10.434;2022-12-18T09:13:37;102946.50;;;-7.56;86.84
73558;BME280;61829;53.286;10.434;2022-12-18T09:16:03;102939.44;;;-7.47;86.26
73558;BME280;61829;53.286;10.434;2022-12-18T09:18:29;102933.19;;;-7.35;87.09
73558;BME280;61829;53.286;10.434;2022-12-18T09:20:56;102939.13;;;-7.20;86.70
73558;BME280;61829;53.286;10.434;2022-12-18T09:23:25;102939.84;;;-7.09;85.89
73558;BME280;61829;53.286;10.434;2022-12-18T09:25:51;102934.53;;;-7.03;85.39
73558;BME280;61829;53.286;10.434;2022-12-18T09:28:18;102935.31;;;-6.96;85.28
73558;BME280;61829;53.286;10.434;2022-12-18T09:30:47;102938.78;;;-6.93;85.38
73558;BME280;61829;53.286;10.434;2022-12-18T09:33:15;102928.25;;;-6.90;84.81
73558;BME280;61829;53.286;10.434;2022-12-18T09:35:42;102935.22;;;-6.87;85.04
73558;BME280;61829;53.286;10.434;2022-12-18T09:38:13;102936.84;;;-6.79;86.00
73558;BME280;61829;53.286;10.434;2022-12-18T09:40:45;102934.06;;;-6.69;84.80
73558;BME280;61829;53.286;10.434;2022-12-18T09:46:01;102939.13;;;-6.57;84.91
73558;BME280;61829;53.286;10.434;2022-12-18T09:48:32;102938.16;;;-6.50;84.53
73558;BME280;61829;53.286;10.434;2022-12-18T09:51:32;102943.34;;;-6.47;84.39
73558;BME280;61829;53.286;10.434;2022-12-18T09:54:12;102946.78;;;-6.42;84.03
73558;BME280;61829;53.286;10.434;2022-12-18T09:56:42;102942.28;;;-6.34;83.94
73558;BME280;61829;53.286;10.434;2022-12-18T10:01:52;102947.28;;;-6.17;83.65
73558;BME280;61829;53.286;10.434;2022-12-18T10:04:18;102948.00;;;-6.08;83.94
73558;BME280;61829;53.286;10.434;2022-12-18T10:07:05;102948.72;;;-5.99;83.60
73558;BME280;61829;53.286;10.434;2022-12-18T10:09:37;102941.50;;;-5.89;83.43
73558;BME280;61829;53.286;10.434;2022-12-18T10:12:24;102946.63;;;-5.81;82.55
73558;BME280;61829;53.286;10.434;2022-12-18T10:17:45;102945.41;;;-5.64;82.93
73558;BME280;61829;53.286;10.434;2022-12-18T10:25:33;102949.41;;;-5.43;81.45
73558;BME280;61829;53.286;10.434;2022-12-18T10:28:12;102946.66;;;-5.35;82.35
73558;BME280;61829;53.286;10.434;2022-12-18T10:30:41;102945.63;;;-5.28;82.04
73558;BME280;61829;53.286;10.434;2022-12-18T10:33:19;102942.13;;;-5.28;81.69
73558;BME280;61829;53.286;10.434;2022-12-18T10:35:47;102945.69;;;-5.31;80.61
73558;BME280;61829;53.286;10.434;2022-12-18T10:41:01;102958.66;;;-5.23;81.57
73558;BME280;61829;53.286;10.434;2022-12-18T10:46:03;102970.72;;;-5.13;81.17
73558;BME280;61829;53.286;10.434;2022-12-18T10:48:32;102970.72;;;-5.13;80.94
73558;BME280;61829;53.286;10.434;2022-12-18T10:50:59;102962.75;;;-5.10;81.32
73558;BME280;61829;53.286;10.434;2022-12-18T10:53:28;102953.94;;;-5.07;81.53
73558;BME280;61829;53.286;10.434;2022-12-18T10:55:57;102945.97;;;-5.03;82.25
73558;BME280;61829;53.286;10.434;2022-12-18T10:58:32;102940.63;;;-4.98;81.60
73558;BME280;61829;53.286;10.434;2022-12-18T11:01:15;102936.03;;;-4.88;81.02
73558;BME280;61829;53.286;10.434;2022-12-18T11:03:47;102937.59;;;-4.80;81.36
73558;BME280;61829;53.286;10.434;2022-12-18T11:06:25;102934.88;;;-4.75;80.83
73558;BME280;61829;53.286;10.434;2022-12-18T11:11:29;102925.09;;;-4.70;81.20
73558;BME280;61829;53.286;10.434;2022-12-18T11:14:14;102924.16;;;-4.66;80.71
73558;BME280;61829;53.286;10.434;2022-12-18T11:16:47;102927.56;;;-4.62;80.83
73558;BME280;61829;53.286;10.434;2022-12-18T11:19:28;102936.31;;;-4.62;80.79
73558;BME280;61829;53.286;10.434;2022-12-18T11:21:56;102945.81;;;-4.56;80.87
73558;BME280;61829;53.286;10.434;2022-12-18T11:24:33;102944.00;;;-4.53;80.53
73558;BME280;61829;53.286;10.434;2022-12-18T11:27:03;102943.97;;;-4.51;80.01
73558;BME280;61829;53.286;10.434;2022-12-18T11:29:35;102935.13;;;-4.47;80.40
73558;BME280;61829;53.286;10.434;2022-12-18T11:34:44;102922.66;;;-4.40;80.33
73558;BME280;61829;53.286;10.434;2022-12-18T11:37:13;102922.59;;;-4.37;80.51
73558;BME280;61829;53.286;10.434;2022-12-18T11:39:45;102916.41;;;-4.35;80.69
73558;BME280;61829;53.286;10.434;2022-12-18T11:42:25;102906.72;;;-4.34;80.06
73558;BME280;61829;53.286;10.434;2022-12-18T11:44:58;102896.19;;;-4.34;80.30
73558;BME280;61829;53.286;10.434;2022-12-18T11:47:35;102896.19;;;-4.34;79.87
73558;BME280;61829;53.286;10.434;2022-12-18T11:50:14;102901.44;;;-4.33;80.45
73558;BME280;61829;53.286;10.434;2022-12-18T11:52:41;102900.44;;;-4.29;80.16
73558;BME280;61829;53.286;10.434;2022-12-18T11:55:12;102902.16;;;-4.26;80.80
73558;BME280;61829;53.286;10.434;2022-12-18T12:00:25;102899.34;;;-4.20;81.29
73558;BME280;61829;53.286;10.434;2022-12-18T12:03:11;102902.66;;;-4.12;81.16
73558;BME280;61829;53.286;10.434;2022-12-18T12:11:50;102901.41;;;-3.97;80.24
73558;BME280;61829;53.286;10.434;2022-12-18T12:14:24;102887.38;;;-3.97;80.37
73558;BME280;61829;53.286;10.434;2022-12-18T12:22:12;102860.09;;;-3.95;79.67
73558;BME280;61829;53.286;10.434;2022-12-18T12:28:13;102853.97;;;-3.95;79.76
73558;BME280;61829;53.286;10.434;2022-12-18T12:33:40;102854.00;;;-3.97;79.78
73558;BME280;61829;53.286;10.434;2022-12-18T12:39:10;102847.84;;;-3.96;79.93
73558;BME280;61829;53.286;10.434;2022-12-18T12:41:38;102837.25;;;-3.94;79.87
73558;BME280;61829;53.286;10.434;2022-12-18T12:44:29;102832.84;;;-3.94;79.68
73558;BME280;61829;53.286;10.434;2022-12-18T12:47:00;102822.31;;;-3.94;80.31
73558;BME280;61829;53.286;10.434;2022-12-18T12:49:31;102817.78;;;-3.89;80.28
73558;BME280;61829;53.286;10.434;2022-12-18T12:52:10;102816.91;;;-3.88;80.28
73558;BME280;61829;53.286;10.434;2022-12-18T12:54:36;102816.00;;;-3.88;79.98
73558;BME280;61829;53.286;10.434;2022-12-18T12:59:47;102800.13;;;-3.85;80.51
73558;BME280;61829;53.286;10.434;2022-12-18T13:03:13;102787.69;;;-3.80;80.48
73558;BME280;61829;53.286;10.434;2022-12-18T13:05:21;102770.09;;;-3.79;80.62
73558;BME280;61829;53.286;10.434;2022-12-18T13:10:44;102773.53;;;-3.76;80.64
73558;BME280;61829;53.286;10.434;2022-12-18T13:13:15;102772.59;;;-3.73;80.74
73558;BME280;61829;53.286;10.434;2022-12-18T13:16:05;102768.94;;;-3.69;80.86
73558;BME280;61829;53.286;10.434;2022-12-18T13:18:33;102765.47;;;-3.71;80.56
73558;BME280;61829;53.286;10.434;2022-12-18T13:23:29;102775.06;;;-3.69;80.97
73558;BME280;61829;53.286;10.434;2022-12-18T13:34:20;102777.88;;;-3.73;80.89
73558;BME280;61829;53.286;10.434;2022-12-18T13:36:47;102779.56;;;-3.72;81.21
73558;BME280;61829;53.286;10.434;2022-12-18T13:41:41;102788.41;;;-3.73;81.34
73558;BME280;61829;53.286;10.434;2022-12-18T13:44:11;102788.50;;;-3.76;81.51
73558;BME280;61829;53.286;10.434;2022-12-18T13:46:50;102783.44;;;-3.84;81.63
73558;BME280;61829;53.286;10.434;2022-12-18T13:51:56;102783.56;;;-3.89;81.84
73558;BME280;61829;53.286;10.434;2022-12-18T13:54:40;102774.88;;;-3.92;81.72
73558;BME280;61829;53.286;10.434;2022-12-18T13:59:56;102768.03;;;-3.99;81.96
73558;BME280;61829;53.286;10.434;2022-12-18T14:02:24;102768.19;;;-4.04;82.21
73558;BME280;61829;53.286;10.434;2022-12-18T14:04:51;102765.59;;;-4.06;82.35
73558;BME280;61829;53.286;10.434;2022-12-18T14:07:28;102777.16;;;-4.11;83.01
73558;BME280;61829;53.286;10.434;2022-12-18T14:10:00;102786.91;;;-4.15;83.05
73558;BME280;61829;53.286;10.434;2022-12-18T14:12:31;102776.47;;;-4.18;83.28
73558;BME280;61829;53.286;10.434;2022-12-18T14:17:50;102773.94;;;-4.22;83.12
73558;BME280;61829;53.286;10.434;2022-12-18T14:20:17;102779.31;;;-4.25;83.13
73558;BME280;61829;53.286;10.434;2022-12-18T14:22:45;102766.19;;;-4.27;83.42
73558;BME280;61829;53.286;10.434;2022-12-18T14:27:42;102768.09;;;-4.34;83.83
73558;BME280;61829;53.286;10.434;2022-12-18T14:30:25;102760.28;;;-4.35;83.76
73558;BME280;61829;53.286;10.434;2022-12-18T14:33:18;102757.72;;;-4.38;84.41
73558;BME280;61829;53.286;10.434;2022-12-18T14:35:58;102764.88;;;-4.43;84.23
73558;BME280;61829;53.286;10.434;2022-12-18T14:38:27;102763.16;;;-4.44;84.57
73558;BME280;61829;53.286;10.434;2022-12-18T14:41:01;102765.91;;;-4.49;84.79
73558;BME280;61829;53.286;10.434;2022-12-18T14:43:31;102763.28;;;-4.51;84.56